sensor_id;sensor_type;location;lat;lon;timestamp;P1;durP1;ratioP1;P2;durP2;ratioP2
45388;SDS011;31127;52.078;4.370;2022-08-14T00:01:30;5.22;;;3.90;;
45388;SDS011;31127;52.078;4.370;2022-08-14T00:06:32;4.07;;;3.47;;
45388;SDS011;31127;52.078;4.370;2022-08-14T00:11:49;5.38;;;3.75;;
45388;SDS011;31127;52.078;4.370;2022-08-14T00:17:05;5.28;;;3.70;;
45388;SDS011;31127;52.078;4.370;2022-08-14T00:22:07;4.57;;;3.50;;
45388;SDS011;31127;52.078;4.370;2022-08-14T00:27:09;9.80;;;4.80;;
45388;SDS011;31127;52.078;4.370;2022-08-14T00:32:11;5.00;;;3.88;;
45388;SDS011;31127;52.078;4.370;2022-08-14T00:37:48;5.82;;;4.05;;
45388;SDS011;31127;52.078;4.370;2022-08-14T00:42:50;6.05;;;3.70;;
45388;SDS011;31127;52.078;4.370;2022-08-14T00:47:52;6.70;;;4.43;;
45388;SDS011;31127;52.078;4.370;2022-08-14T00:53:02;5.35;;;4.10;;
45388;SDS011;31127;52.078;4.370;2022-08-14T00:58:04;6.40;;;4.43;;
45388;SDS011;31127;52.078;4.370;2022-08-14T01:03:32;5.70;;;3.90;;
45388;SDS011;31127;52.078;4.370;2022-08-14T01:08:41;5.30;;;4.43;;
45388;SDS011;31127;52.078;4.370;2022-08-14T01:13:44;6.72;;;3.65;;
45388;SDS011;31127;52.078;4.370;2022-08-14T01:18:54;4.78;;;4.25;;
45388;SDS011;31127;52.078;4.370;2022-08-14T01:24:21;6.07;;;4.22;;
45388;SDS011;31127;52.078;4.370;2022-08-14T01:29:23;6.20;;;4.30;;
45388;SDS011;31127;52.078;4.370;2022-08-14T01:34:53;6.88;;;4.60;;
45388;SDS011;31127;52.078;4.370;2022-08-14T01:39:55;6.38;;;4.53;;
45388;SDS011;31127;52.078;4.370;2022-08-14T01:44:57;7.47;;;4.90;;
45388;SDS011;31127;52.078;4.370;2022-08-14T01:50:13;8.40;;;4.75;;
45388;SDS011;31127;52.078;4.370;2022-08-14T01:55:25;8.55;;;5.72;;
45388;SDS011;31127;52.078;4.370;2022-08-14T02:00:30;7.22;;;6.03;;
45388;SDS011;31127;52.078;4.370;2022-08-14T02:05:39;5.90;;;5.30;;
45388;SDS011;31127;52.078;4.370;2022-08-14T02:10:41;11.80;;;5.73;;
45388;SDS011;31127;52.078;4.370;2022-08-14T02:15:43;8.10;;;5.67;;
45388;SDS011;31127;52.078;4.370;2022-08-14T02:20:54;8.90;;;6.57;;
45388;SDS011;31127;52.078;4.370;2022-08-14T02:25:57;7.40;;;6.70;;
45388;SDS011;31127;52.078;4.370;2022-08-14T02:31:07;6.78;;;6.03;;
45388;SDS011;31127;52.078;4.370;2022-08-14T02:36:37;8.73;;;7.00;;
45388;SDS011;31127;52.078;4.370;2022-08-14T02:41:39;7.68;;;6.97;;
45388;SDS011;31127;52.078;4.370;2022-08-14T02:46:40;8.83;;;6.80;;
45388;SDS011;31127;52.078;4.370;2022-08-14T02:51:56;10.75;;;7.35;;
45388;SDS011;31127;52.078;4.370;2022-08-14T02:56:59;9.00;;;7.03;;
45388;SDS011;31127;52.078;4.370;2022-08-14T03:02:21;9.75;;;6.78;;
45388;SDS011;31127;52.078;4.370;2022-08-14T03:08:04;10.02;;;7.80;;
45388;SDS011;31127;52.078;4.370;2022-08-14T03:13:06;9.30;;;7.45;;
45388;SDS011;31127;52.078;4.370;2022-08-14T03:18:23;10.63;;;7.30;;
45388;SDS011;31127;52.078;4.370;2022-08-14T03:23:28;12.95;;;8.35;;
45388;SDS011;31127;52.078;4.370;2022-08-14T03:28:35;10.05;;;7.78;;
45388;SDS011;31127;52.078;4.370;2022-08-14T03:33:43;15.15;;;8.88;;
45388;SDS011;31127;52.078;4.370;2022-08-14T03:38:46;12.37;;;8.00;;
45388;SDS011;31127;52.078;4.370;2022-08-14T03:43:57;12.35;;;8.70;;
45388;SDS011;31127;52.078;4.370;2022-08-14T03:49:00;10.68;;;8.80;;
45388;SDS011;31127;52.078;4.370;2022-08-14T03:54:05;11.50;;;7.88;;
45388;SDS011;31127;52.078;4.370;2022-08-14T03:59:09;11.02;;;8.68;;
45388;SDS011;31127;52.078;4.370;2022-08-14T04:04:12;11.02;;;9.88;;
45388;SDS011;31127;52.078;4.370;2022-08-14T04:09:40;10.32;;;9.43;;
45388;SDS011;31127;52.078;4.370;2022-08-14T04:14:50;10.27;;;9.15;;
45388;SDS011;31127;52.078;4.370;2022-08-14T04:19:59;13.27;;;9.93;;
45388;SDS011;31127;52.078;4.370;2022-08-14T04:30:08;12.45;;;11.15;;
45388;SDS011;31127;52.078;4.370;2022-08-14T04:35:10;11.47;;;10.30;;
45388;SDS011;31127;52.078;4.370;2022-08-14T04:40:12;14.80;;;11.67;;
45388;SDS011;31127;52.078;4.370;2022-08-14T04:45:40;10.90;;;9.80;;
45388;SDS011;31127;52.078;4.370;2022-08-14T04:50:51;12.27;;;9.63;;
45388;SDS011;31127;52.078;4.370;2022-08-14T04:56:00;12.48;;;11.30;;
45388;SDS011;31127;52.078;4.370;2022-08-14T05:01:03;13.82;;;10.73;;
45388;SDS011;31127;52.078;4.370;2022-08-14T05:06:09;13.27;;;11.30;;
45388;SDS011;31127;52.078;4.370;2022-08-14T05:11:11;15.52;;;10.98;;
45388;SDS011;31127;52.078;4.370;2022-08-14T05:16:13;14.53;;;11.43;;
45388;SDS011;31127;52.078;4.370;2022-08-14T05:21:15;12.60;;;10.97;;
45388;SDS011;31127;52.078;4.370;2022-08-14T05:26:17;12.87;;;11.10;;
45388;SDS011;31127;52.078;4.370;2022-08-14T05:31:53;13.88;;;11.45;;
45388;SDS011;31127;52.078;4.370;2022-08-14T05:36:57;13.13;;;11.68;;
45388;SDS011;31127;52.078;4.370;2022-08-14T05:41:59;12.63;;;11.25;;
45388;SDS011;31127;52.078;4.370;2022-08-14T05:47:21;16.88;;;11.52;;
45388;SDS011;31127;52.078;4.370;2022-08-14T05:52:30;13.48;;;11.82;;
45388;SDS011;31127;52.078;4.370;2022-08-14T05:57:32;12.63;;;11.33;;
45388;SDS011;31127;52.078;4.370;2022-08-14T06:02:34;14.85;;;11.77;;
45388;SDS011;31127;52.078;4.370;2022-08-14T06:07:43;13.37;;;11.90;;
45388;SDS011;31127;52.078;4.370;2022-08-14T06:12:45;16.65;;;12.18;;
45388;SDS011;31127;52.078;4.370;2022-08-14T06:17:49;13.33;;;11.77;;
45388;SDS011;31127;52.078;4.370;2022-08-14T06:22:58;15.15;;;12.82;;
45388;SDS011;31127;52.078;4.370;2022-08-14T06:28:00;13.13;;;11.83;;
45388;SDS011;31127;52.078;4.370;2022-08-14T06:33:36;13.55;;;12.15;;
45388;SDS011;31127;52.078;4.370;2022-08-14T06:38:49;15.77;;;12.07;;
45388;SDS011;31127;52.078;4.370;2022-08-14T06:44:05;13.45;;;11.73;;
45388;SDS011;31127;52.078;4.370;2022-08-14T06:49:07;15.57;;;11.90;;
45388;SDS011;31127;52.078;4.370;2022-08-14T06:54:09;13.20;;;11.90;;
45388;SDS011;31127;52.078;4.370;2022-08-14T06:59:25;13.35;;;12.05;;
45388;SDS011;31127;52.078;4.370;2022-08-14T07:04:27;17.55;;;13.00;;
45388;SDS011;31127;52.078;4.370;2022-08-14T07:09:54;13.43;;;12.13;;
45388;SDS011;31127;52.078;4.370;2022-08-14T07:14:56;15.00;;;11.47;;
45388;SDS011;31127;52.078;4.370;2022-08-14T07:19:58;15.13;;;13.20;;
45388;SDS011;31127;52.078;4.370;2022-08-14T07:25:07;20.40;;;12.93;;
45388;SDS011;31127;52.078;4.370;2022-08-14T07:30:09;13.60;;;11.02;;
45388;SDS011;31127;52.078;4.370;2022-08-14T07:35:11;11.67;;;9.20;;
45388;SDS011;31127;52.078;4.370;2022-08-14T07:40:27;12.80;;;9.75;;
45388;SDS011;31127;52.078;4.370;2022-08-14T07:45:29;9.60;;;8.68;;
45388;SDS011;31127;52.078;4.370;2022-08-14T07:50:38;14.20;;;10.00;;
45388;SDS011;31127;52.078;4.370;2022-08-14T07:55:41;10.47;;;8.87;;
45388;SDS011;31127;52.078;4.370;2022-08-14T08:00:43;9.63;;;8.52;;
45388;SDS011;31127;52.078;4.370;2022-08-14T08:05:52;10.73;;;9.57;;
45388;SDS011;31127;52.078;4.370;2022-08-14T08:11:01;10.77;;;9.05;;
45388;SDS011;31127;52.078;4.370;2022-08-14T08:16:03;11.88;;;8.95;;
45388;SDS011;31127;52.078;4.370;2022-08-14T08:21:27;15.30;;;9.10;;
45388;SDS011;31127;52.078;4.370;2022-08-14T08:26:36;9.48;;;8.27;;
45388;SDS011;31127;52.078;4.370;2022-08-14T08:31:45;11.80;;;8.38;;
45388;SDS011;31127;52.078;4.370;2022-08-14T08:37:08;12.00;;;8.75;;
45388;SDS011;31127;52.078;4.370;2022-08-14T08:42:24;8.93;;;7.35;;
45388;SDS011;31127;52.078;4.370;2022-08-14T08:47:36;14.52;;;8.82;;
45388;SDS011;31127;52.078;4.370;2022-08-14T08:52:53;8.95;;;8.00;;
45388;SDS011;31127;52.078;4.370;2022-08-14T08:58:14;11.18;;;7.88;;
45388;SDS011;31127;52.078;4.370;2022-08-14T09:03:17;9.57;;;7.63;;
45388;SDS011;31127;52.078;4.370;2022-08-14T09:08:27;9.02;;;7.10;;
45388;SDS011;31127;52.078;4.370;2022-08-14T09:13:29;8.32;;;6.60;;
45388;SDS011;31127;52.078;4.370;2022-08-14T09:18:31;7.55;;;6.60;;
45388;SDS011;31127;52.078;4.370;2022-08-14T09:23:33;8.45;;;6.57;;
45388;SDS011;31127;52.078;4.370;2022-08-14T09:28:36;9.95;;;6.60;;
45388;SDS011;31127;52.078;4.370;2022-08-14T09:34:00;8.07;;;5.45;;
45388;SDS011;31127;52.078;4.370;2022-08-14T09:44:09;6.72;;;4.88;;
45388;SDS011;31127;52.078;4.370;2022-08-14T09:49:11;9.50;;;5.60;;
45388;SDS011;31127;52.078;4.370;2022-08-14T09:59:17;5.78;;;5.18;;
45388;SDS011;31127;52.078;4.370;2022-08-14T10:04:29;4.90;;;4.50;;
45388;SDS011;31127;52.078;4.370;2022-08-14T10:09:32;7.70;;;5.18;;
45388;SDS011;31127;52.078;4.370;2022-08-14T10:14:33;12.20;;;5.22;;
45388;SDS011;31127;52.078;4.370;2022-08-14T10:19:46;5.72;;;4.40;;
45388;SDS011;31127;52.078;4.370;2022-08-14T10:24:48;5.13;;;3.70;;
45388;SDS011;31127;52.078;4.370;2022-08-14T10:29:54;6.10;;;4.18;;
45388;SDS011;31127;52.078;4.370;2022-08-14T10:35:05;5.90;;;4.80;;
45388;SDS011;31127;52.078;4.370;2022-08-14T10:40:08;5.25;;;4.60;;
45388;SDS011;31127;52.078;4.370;2022-08-14T10:45:17;4.90;;;4.50;;
45388;SDS011;31127;52.078;4.370;2022-08-14T10:50:33;6.13;;;5.53;;
45388;SDS011;31127;52.078;4.370;2022-08-14T10:55:36;6.50;;;5.93;;
45388;SDS011;31127;52.078;4.370;2022-08-14T11:00:54;7.88;;;7.00;;
45388;SDS011;31127;52.078;4.370;2022-08-14T11:06:10;8.30;;;7.55;;
45388;SDS011;31127;52.078;4.370;2022-08-14T11:11:15;8.60;;;7.90;;
45388;SDS011;31127;52.078;4.370;2022-08-14T11:16:18;9.20;;;8.55;;
45388;SDS011;31127;52.078;4.370;2022-08-14T11:21:26;9.15;;;8.30;;
45388;SDS011;31127;52.078;4.370;2022-08-14T11:26:30;8.15;;;7.70;;
45388;SDS011;31127;52.078;4.370;2022-08-14T11:31:32;9.15;;;7.70;;
45388;SDS011;31127;52.078;4.370;2022-08-14T11:36:36;7.70;;;7.10;;
45388;SDS011;31127;52.078;4.370;2022-08-14T11:41:38;8.05;;;7.40;;
45388;SDS011;31127;52.078;4.370;2022-08-14T11:46:42;7.18;;;6.68;;
45388;SDS011;31127;52.078;4.370;2022-08-14T11:51:44;7.70;;;7.20;;
45388;SDS011;31127;52.078;4.370;2022-08-14T11:56:54;7.47;;;6.78;;
45388;SDS011;31127;52.078;4.370;2022-08-14T12:01:56;6.47;;;6.07;;
45388;SDS011;31127;52.078;4.370;2022-08-14T12:07:05;6.90;;;6.38;;
45388;SDS011;31127;52.078;4.370;2022-08-14T12:17:16;7.00;;;6.50;;
45388;SDS011;31127;52.078;4.370;2022-08-14T12:22:19;6.68;;;6.18;;
45388;SDS011;31127;52.078;4.370;2022-08-14T12:27:21;6.22;;;5.72;;
45388;SDS011;31127;52.078;4.370;2022-08-14T12:32:24;5.95;;;5.32;;
45388;SDS011;31127;52.078;4.370;2022-08-14T12:37:33;5.90;;;4.80;;
45388;SDS011;31127;52.078;4.370;2022-08-14T12:42:37;6.05;;;5.53;;
45388;SDS011;31127;52.078;4.370;2022-08-14T12:47:40;5.55;;;4.80;;
45388;SDS011;31127;52.078;4.370;2022-08-14T12:52:43;5.68;;;5.13;;
45388;SDS011;31127;52.078;4.370;2022-08-14T12:57:46;5.28;;;4.78;;
45388;SDS011;31127;52.078;4.370;2022-08-14T13:02:49;5.30;;;4.90;;
45388;SDS011;31127;52.078;4.370;2022-08-14T13:07:52;5.43;;;4.93;;
45388;SDS011;31127;52.078;4.370;2022-08-14T13:12:55;6.70;;;5.07;;
45388;SDS011;31127;52.078;4.370;2022-08-14T13:17:57;5.38;;;5.00;;
45388;SDS011;31127;52.078;4.370;2022-08-14T13:23:02;5.38;;;4.97;;
45388;SDS011;31127;52.078;4.370;2022-08-14T13:28:04;11.15;;;10.27;;
45388;SDS011;31127;52.078;4.370;2022-08-14T13:33:06;4.80;;;4.38;;
45388;SDS011;31127;52.078;4.370;2022-08-14T13:38:08;4.90;;;4.50;;
45388;SDS011;31127;52.078;4.370;2022-08-14T13:43:11;5.00;;;4.60;;
45388;SDS011;31127;52.078;4.370;2022-08-14T13:48:13;5.32;;;5.03;;
45388;SDS011;31127;52.078;4.370;2022-08-14T13:53:16;4.30;;;3.90;;
45388;SDS011;31127;52.078;4.370;2022-08-14T13:58:18;5.18;;;4.70;;
45388;SDS011;31127;52.078;4.370;2022-08-14T14:03:21;4.53;;;3.72;;
45388;SDS011;31127;52.078;4.370;2022-08-14T14:08:24;4.63;;;4.18;;
45388;SDS011;31127;52.078;4.370;2022-08-14T14:13:26;4.22;;;3.90;;
45388;SDS011;31127;52.078;4.370;2022-08-14T14:18:28;3.80;;;3.50;;
45388;SDS011;31127;52.078;4.370;2022-08-14T14:23:32;5.93;;;4.18;;
45388;SDS011;31127;52.078;4.370;2022-08-14T14:28:35;6.15;;;4.10;;
45388;SDS011;31127;52.078;4.370;2022-08-14T14:33:40;9.18;;;4.18;;
45388;SDS011;31127;52.078;4.370;2022-08-14T14:38:42;6.97;;;3.97;;
45388;SDS011;31127;52.078;4.370;2022-08-14T14:43:47;4.32;;;3.90;;
45388;SDS011;31127;52.078;4.370;2022-08-14T14:48:49;6.15;;;5.07;;
45388;SDS011;31127;52.078;4.370;2022-08-14T14:53:51;7.60;;;4.53;;
45388;SDS011;31127;52.078;4.370;2022-08-14T14:58:53;6.20;;;4.85;;
45388;SDS011;31127;52.078;4.370;2022-08-14T15:03:55;4.70;;;4.40;;
45388;SDS011;31127;52.078;4.370;2022-08-14T15:08:59;4.88;;;4.47;;
45388;SDS011;31127;52.078;4.370;2022-08-14T15:14:08;4.82;;;4.47;;
45388;SDS011;31127;52.078;4.370;2022-08-14T15:19:10;4.40;;;3.83;;
45388;SDS011;31127;52.078;4.370;2022-08-14T15:24:22;5.55;;;5.10;;
45388;SDS011;31127;52.078;4.370;2022-08-14T15:29:24;6.00;;;4.43;;
45388;SDS011;31127;52.078;4.370;2022-08-14T15:34:26;4.40;;;4.10;;
45388;SDS011;31127;52.078;4.370;2022-08-14T15:39:30;5.13;;;4.63;;
45388;SDS011;31127;52.078;4.370;2022-08-14T15:44:31;5.47;;;4.25;;
45388;SDS011;31127;52.078;4.370;2022-08-14T15:49:33;5.15;;;4.57;;
45388;SDS011;31127;52.078;4.370;2022-08-14T15:54:35;5.85;;;4.68;;
45388;SDS011;31127;52.078;4.370;2022-08-14T15:59:38;6.88;;;4.30;;
45388;SDS011;31127;52.078;4.370;2022-08-14T16:05:04;6.88;;;5.05;;
45388;SDS011;31127;52.078;4.370;2022-08-14T16:10:13;4.88;;;4.38;;
45388;SDS011;31127;52.078;4.370;2022-08-14T16:15:15;5.05;;;4.65;;
45388;SDS011;31127;52.078;4.370;2022-08-14T16:20:19;4.55;;;4.25;;
45388;SDS011;31127;52.078;4.370;2022-08-14T16:25:23;5.22;;;4.82;;
45388;SDS011;31127;52.078;4.370;2022-08-14T16:30:26;4.78;;;4.38;;
45388;SDS011;31127;52.078;4.370;2022-08-14T16:35:30;5.55;;;4.78;;
45388;SDS011;31127;52.078;4.370;2022-08-14T16:40:40;7.40;;;5.05;;
45388;SDS011;31127;52.078;4.370;2022-08-14T16:45:42;4.90;;;4.47;;
45388;SDS011;31127;52.078;4.370;2022-08-14T16:50:46;4.70;;;4.30;;
45388;SDS011;31127;52.078;4.370;2022-08-14T16:56:07;7.55;;;4.80;;
45388;SDS011;31127;52.078;4.370;2022-08-14T17:01:14;4.53;;;4.15;;
45388;SDS011;31127;52.078;4.370;2022-08-14T17:06:20;8.75;;;4.85;;
45388;SDS011;31127;52.078;4.370;2022-08-14T17:11:48;6.20;;;4.85;;
45388;SDS011;31127;52.078;4.370;2022-08-14T17:16:57;5.18;;;4.78;;
45388;SDS011;31127;52.078;4.370;2022-08-14T17:21:59;5.63;;;4.50;;
45388;SDS011;31127;52.078;4.370;2022-08-14T17:27:02;5.07;;;4.68;;
45388;SDS011;31127;52.078;4.370;2022-08-14T17:32:08;8.48;;;6.43;;
45388;SDS011;31127;52.078;4.370;2022-08-14T17:47:52;5.60;;;5.15;;
45388;SDS011;31127;52.078;4.370;2022-08-14T17:52:54;8.52;;;5.55;;
45388;SDS011;31127;52.078;4.370;2022-08-14T17:57:56;8.73;;;5.45;;
45388;SDS011;31127;52.078;4.370;2022-08-14T18:02:58;6.40;;;4.82;;
45388;SDS011;31127;52.078;4.370;2022-08-14T18:08:01;9.25;;;5.25;;
45388;SDS011;31127;52.078;4.370;2022-08-14T18:13:13;8.15;;;5.70;;
45388;SDS011;31127;52.078;4.370;2022-08-14T18:18:17;8.23;;;5.45;;
45388;SDS011;31127;52.078;4.370;2022-08-14T18:23:20;6.32;;;5.38;;
45388;SDS011;31127;52.078;4.370;2022-08-14T18:28:23;10.95;;;6.80;;
45388;SDS011;31127;52.078;4.370;2022-08-14T18:33:26;6.70;;;6.00;;
45388;SDS011;31127;52.078;4.370;2022-08-14T18:38:28;5.60;;;5.10;;
45388;SDS011;31127;52.078;4.370;2022-08-14T18:48:42;6.60;;;6.00;;
45388;SDS011;31127;52.078;4.370;2022-08-14T18:53:54;6.70;;;6.10;;
45388;SDS011;31127;52.078;4.370;2022-08-14T18:58:56;8.25;;;5.70;;
45388;SDS011;31127;52.078;4.370;2022-08-14T19:03:59;10.20;;;5.78;;
45388;SDS011;31127;52.078;4.370;2022-08-14T19:09:02;7.07;;;5.45;;
45388;SDS011;31127;52.078;4.370;2022-08-14T19:14:04;5.72;;;4.85;;
45388;SDS011;31127;52.078;4.370;2022-08-14T19:19:07;6.25;;;5.65;;
45388;SDS011;31127;52.078;4.370;2022-08-14T19:24:20;6.57;;;5.38;;
45388;SDS011;31127;52.078;4.370;2022-08-14T19:29:32;5.40;;;4.90;;
45388;SDS011;31127;52.078;4.370;2022-08-14T19:34:44;5.97;;;5.38;;
45388;SDS011;31127;52.078;4.370;2022-08-14T19:39:49;6.65;;;5.55;;
45388;SDS011;31127;52.078;4.370;2022-08-14T19:44:53;11.32;;;5.32;;
45388;SDS011;31127;52.078;4.370;2022-08-14T19:49:55;6.45;;;5.13;;
45388;SDS011;31127;52.078;4.370;2022-08-14T20:00:10;6.07;;;5.47;;
45388;SDS011;31127;52.078;4.370;2022-08-14T20:05:13;6.05;;;5.55;;
45388;SDS011;31127;52.078;4.370;2022-08-14T20:10:29;6.40;;;5.65;;
45388;SDS011;31127;52.078;4.370;2022-08-14T20:15:33;8.68;;;5.75;;
45388;SDS011;31127;52.078;4.370;2022-08-14T20:20:40;6.63;;;5.88;;
45388;SDS011;31127;52.078;4.370;2022-08-14T20:25:43;7.18;;;5.70;;
45388;SDS011;31127;52.078;4.370;2022-08-14T20:30:45;9.98;;;6.00;;
45388;SDS011;31127;52.078;4.370;2022-08-14T20:35:54;8.98;;;5.93;;
45388;SDS011;31127;52.078;4.370;2022-08-14T20:40:57;9.75;;;6.63;;
45388;SDS011;31127;52.078;4.370;2022-08-14T20:45:59;6.97;;;6.30;;
45388;SDS011;31127;52.078;4.370;2022-08-14T20:51:20;8.20;;;5.95;;
45388;SDS011;31127;52.078;4.370;2022-08-14T20:56:24;8.05;;;6.60;;
45388;SDS011;31127;52.078;4.370;2022-08-14T21:06:34;7.23;;;6.23;;
45388;SDS011;31127;52.078;4.370;2022-08-14T21:11:36;7.25;;;6.20;;
45388;SDS011;31127;52.078;4.370;2022-08-14T21:16:38;7.05;;;6.22;;
45388;SDS011;31127;52.078;4.370;2022-08-14T21:21:41;7.28;;;6.57;;
45388;SDS011;31127;52.078;4.370;2022-08-14T21:26:46;7.10;;;6.43;;
45388;SDS011;31127;52.078;4.370;2022-08-14T21:31:55;7.28;;;6.47;;
45388;SDS011;31127;52.078;4.370;2022-08-14T21:36:58;7.93;;;6.32;;
45388;SDS011;31127;52.078;4.370;2022-08-14T21:42:03;8.00;;;6.75;;
45388;SDS011;31127;52.078;4.370;2022-08-14T21:47:06;7.07;;;6.35;;
45388;SDS011;31127;52.078;4.370;2022-08-14T21:52:10;9.23;;;7.40;;
45388;SDS011;31127;52.078;4.370;2022-08-14T21:57:13;8.30;;;7.55;;
45388;SDS011;31127;52.078;4.370;2022-08-14T22:02:21;8.32;;;7.28;;
45388;SDS011;31127;52.078;4.370;2022-08-14T22:07:23;8.75;;;7.85;;
45388;SDS011;31127;52.078;4.370;2022-08-14T22:12:26;8.32;;;7.53;;
45388;SDS011;31127;52.078;4.370;2022-08-14T22:17:28;10.20;;;7.35;;
45388;SDS011;31127;52.078;4.370;2022-08-14T22:22:31;8.13;;;7.43;;
45388;SDS011;31127;52.078;4.370;2022-08-14T22:27:37;8.55;;;7.65;;
45388;SDS011;31127;52.078;4.370;2022-08-14T22:32:39;8.32;;;7.53;;
45388;SDS011;31127;52.078;4.370;2022-08-14T22:37:48;10.30;;;8.00;;
45388;SDS011;31127;52.078;4.370;2022-08-14T22:42:50;8.90;;;8.05;;
45388;SDS011;31127;52.078;4.370;2022-08-14T22:47:52;8.60;;;7.80;;
45388;SDS011;31127;52.078;4.370;2022-08-14T22:52:54;9.15;;;8.25;;
45388;SDS011;31127;52.078;4.370;2022-08-14T22:57:56;9.25;;;8.35;;
45388;SDS011;31127;52.078;4.370;2022-08-14T23:03:00;10.07;;;8.48;;
45388;SDS011;31127;52.078;4.370;2022-08-14T23:08:02;8.48;;;7.57;;
45388;SDS011;31127;52.078;4.370;2022-08-14T23:13:06;9.45;;;8.25;;
45388;SDS011;31127;52.078;4.370;2022-08-14T23:18:08;9.63;;;8.75;;
45388;SDS011;31127;52.078;4.370;2022-08-14T23:23:13;10.20;;;8.18;;
45388;SDS011;31127;52.078;4.370;2022-08-14T23:28:18;10.73;;;9.43;;
45388;SDS011;31127;52.078;4.370;2022-08-14T23:33:19;10.75;;;9.07;;
45388;SDS011;31127;52.078;4.370;2022-08-14T23:38:21;12.30;;;9.50;;
45388;SDS011;31127;52.078;4.370;2022-08-14T23:43:25;10.80;;;9.75;;
45388;SDS011;31127;52.078;4.370;2022-08-14T23:48:28;9.77;;;8.77;;
45388;SDS011;31127;52.078;4.370;2022-08-14T23:53:33;12.45;;;9.15;;
45388;SDS011;31127;52.078;4.370;2022-08-14T23:58:36;11.70;;;10.10;;
